Time;durP1;ratioP1;P1;durP2;ratioP2;P2;SDS_P1;SDS_P2;PMS_P1;PMS_P2;Temp;Humidity;BMP_temperature;BMP_pressure;BME280_temperature;BME280_humidity;BME280_pressure;Samples;Min_cycle;Max_cycle;Signal;HPM_P1;HPM_P2
2023/10/11 00:02:19;;;;;;;13.43;6.78;;;;;;;18.48;65.36;100328.06;10337451;28;20058;-55
2023/10/11 00:07:21;;;;;;;11.95;6.45;;;;;;;18.46;65.37;100333.63;10340112;28;20107;-55
2023/10/11 00:12:24;;;;;;;12.13;6.88;;;;;;;18.42;65.24;100328.75;10331482;28;20052;-55
2023/10/11 00:17:28;;;;;;;9.25;6.45;;;;;;;18.38;65.20;100333.66;10336271;28;20137;-56
2023/10/11 00:22:32;;;;;;;11.02;6.68;;;;;;;18.40;65.91;100333.47;10342483;28;20053;-56
2023/10/11 00:27:36;;;;;;;10.23;7.15;;;;;;;18.33;65.51;100331.47;10333337;28;20060;-55
2023/10/11 00:32:39;;;;;;;9.57;6.68;;;;;;;18.37;66.29;100330.13;10331631;28;20700;-56
2023/10/11 00:37:44;;;;;;;12.27;7.53;;;;;;;18.36;65.67;100322.22;10338283;28;20050;-56
2023/10/11 00:42:45;;;;;;;12.35;7.05;;;;;;;18.34;66.00;100319.66;10343269;28;20062;-57
2023/10/11 00:47:51;;;;;;;12.38;7.10;;;;;;;18.18;66.15;100296.31;10349074;28;20048;-56
2023/10/11 00:52:55;;;;;;;11.20;6.43;;;;;;;17.84;65.80;100239.97;10342090;28;20053;-56
2023/10/11 00:57:56;;;;;;;11.90;7.75;;;;;;;18.23;65.71;100303.06;10339164;28;20121;-56
2023/10/11 01:02:58;;;;;;;11.85;6.70;;;;;;;18.18;66.57;100292.78;10340119;28;20125;-56
2023/10/11 01:08:00;;;;;;;10.80;6.88;;;;;;;18.07;66.13;100282.38;10341215;28;20073;-56
2023/10/11 01:13:01;;;;;;;11.48;6.85;;;;;;;18.18;66.20;100296.31;10345254;28;20064;-58
2023/10/11 01:18:03;;;;;;;11.13;6.90;;;;;;;18.08;66.31;100284.88;10339192;28;20107;-57
2023/10/11 01:23:04;;;;;;;10.57;7.10;;;;;;;18.10;66.12;100298.19;10341468;28;20132;-56
2023/10/11 01:28:06;;;;;;;12.90;6.75;;;;;;;18.08;66.54;100284.06;10337928;28;20115;-57
2023/10/11 01:33:07;;;;;;;11.52;6.63;;;;;;;18.05;66.81;100277.16;10347073;28;20062;-56
2023/10/11 01:38:10;;;;;;;11.63;6.90;;;;;;;18.00;66.60;100272.28;10340836;28;20042;-55
2023/10/11 01:43:12;;;;;;;11.27;6.78;;;;;;;17.96;66.59;100273.63;10339215;28;20061;-56
2023/10/11 01:48:15;;;;;;;9.93;6.47;;;;;;;17.98;66.71;100285.06;10341542;28;20513;-56
2023/10/11 01:53:18;;;;;;;10.20;6.57;;;;;;;17.95;65.99;100280.03;10345697;28;20065;-55
2023/10/11 01:58:19;;;;;;;11.77;6.78;;;;;;;17.93;66.39;100279.38;10334091;28;20294;-55
2023/10/11 02:03:24;;;;;;;13.45;6.70;;;;;;;17.94;65.34;100278.38;10335090;28;20692;-57
2023/10/11 02:08:27;;;;;;;11.15;6.32;;;;;;;17.89;65.12;100269.94;10350256;28;20059;-55
2023/10/11 02:13:30;;;;;;;10.87;6.40;;;;;;;17.98;65.60;100279.69;10339682;28;20187;-55
2023/10/11 02:18:32;;;;;;;9.77;6.00;;;;;;;17.96;65.75;100280.88;10342790;28;20048;-56
2023/10/11 02:23:37;;;;;;;10.07;5.85;;;;;;;17.99;66.03;100270.59;10339772;28;20243;-56
2023/10/11 02:28:45;;;;;;;12.98;6.78;;;;;;;17.93;65.89;100265.06;10338602;28;20100;-56
2023/10/11 02:33:51;;;;;;;8.88;6.20;;;;;;;17.99;66.33;100267.91;10339144;28;20045;-56
2023/10/11 02:38:54;;;;;;;11.70;7.00;;;;;;;17.98;66.52;100265.38;10339793;28;20124;-56
2023/10/11 02:43:57;;;;;;;11.30;6.90;;;;;;;17.94;66.03;100262.19;10338188;28;20632;-56
2023/10/11 02:49:18;;;;;;;9.20;5.93;;;;;;;17.87;66.08;100254.94;10336177;28;20132;-56
2023/10/11 02:54:20;;;;;;;12.30;7.35;;;;;;;17.83;66.27;100249.06;10342775;28;20045;-56
2023/10/11 02:59:25;;;;;;;14.07;7.70;;;;;;;17.76;65.62;100259.69;10335283;28;20557;-56
2023/10/11 03:04:45;;;;;;;9.52;6.40;;;;;;;17.70;65.79;100246.03;10341271;28;20319;-56
2023/10/11 03:09:46;;;;;;;10.57;6.28;;;;;;;17.64;65.46;100256.50;10337377;28;20038;-55
2023/10/11 03:14:54;;;;;;;15.02;6.85;;;;;;;17.57;65.58;100243.88;10339554;28;20491;-56
2023/10/11 03:19:56;;;;;;;11.48;6.57;;;;;;;17.55;66.15;100252.13;10341955;28;20050;-56
2023/10/11 03:25:01;;;;;;;10.63;6.18;;;;;;;17.51;66.51;100245.41;10341056;28;20053;-56
2023/10/11 03:30:02;;;;;;;10.38;6.18;;;;;;;17.53;66.46;100248.75;10340397;28;20068;-56
2023/10/11 03:35:04;;;;;;;13.55;6.57;;;;;;;17.32;66.72;100219.66;10342163;28;20041;-57
2023/10/11 03:40:27;;;;;;;10.93;5.90;;;;;;;17.47;65.96;100244.91;10336079;28;20173;-56
2023/10/11 03:45:28;;;;;;;11.02;6.40;;;;;;;17.35;66.44;100240.84;10329392;28;20148;-55
2023/10/11 03:50:34;;;;;;;9.25;5.85;;;;;;;17.36;67.31;100234.47;10334930;28;20128;-56
2023/10/11 03:55:45;;;;;;;9.98;6.32;;;;;;;17.19;66.13;100201.34;10332367;28;20049;-55
2023/10/11 04:00:47;;;;;;;10.18;6.00;;;;;;;17.39;67.29;100236.81;10330013;28;20292;-55
2023/10/11 04:05:50;;;;;;;9.07;6.07;;;;;;;17.41;67.77;100240.16;10334970;28;20051;-55
2023/10/11 04:10:53;;;;;;;9.77;6.20;;;;;;;17.46;66.83;100235.13;10335820;28;20050;-55
2023/10/11 04:15:59;;;;;;;12.77;6.90;;;;;;;17.47;67.36;100223.38;10342256;28;20064;-57
2023/10/11 04:31:53;;;;;;;11.25;6.75;;;;;;;17.49;69.04;100233.97;10340909;28;20053;-56
2023/10/11 04:36:55;;;;;;;12.10;6.75;;;;;;;17.25;68.71;100200.69;10354317;28;20468;-55
2023/10/11 04:41:59;;;;;;;10.48;6.35;;;;;;;17.41;68.84;100242.03;10341224;28;20054;-55
2023/10/11 04:47:00;;;;;;;11.53;6.23;;;;;;;17.32;69.11;100235.81;10336261;28;20729;-55
2023/10/11 04:52:10;;;;;;;11.50;6.70;;;;;;;17.37;69.78;100248.75;10342612;28;20367;-55
2023/10/11 04:57:18;;;;;;;8.45;5.70;;;;;;;17.36;69.29;100252.47;10336220;28;20046;-56
2023/10/11 05:02:32;;;;;;;11.48;7.15;;;;;;;17.28;69.10;100246.06;10338477;28;20072;-55
2023/10/11 05:07:34;;;;;;;11.23;6.75;;;;;;;17.25;70.23;100251.78;10338567;28;20366;-55
2023/10/11 05:12:41;;;;;;;10.00;6.25;;;;;;;17.26;70.42;100256.16;10334160;28;20068;-55
2023/10/11 05:17:50;;;;;;;11.88;6.38;;;;;;;17.20;70.42;100240.66;10343945;28;20065;-55
2023/10/11 05:23:02;;;;;;;13.15;6.35;;;;;;;17.20;69.54;100237.97;10342143;28;20273;-54
2023/10/11 05:28:44;;;;;;;10.95;6.28;;;;;;;17.18;70.57;100240.00;10320660;28;20158;-53
2023/10/11 05:33:45;;;;;;;12.85;7.43;;;;;;;17.20;72.08;100247.91;10334089;28;20099;-56
2023/10/11 05:55:06;;;;;;;10.40;7.05;;;;;;;16.86;70.34;100252.38;10341581;28;20072;-56
2023/10/11 06:00:23;;;;;;;11.55;7.05;;;;;;;16.95;71.10;100256.78;10337760;28;20048;-56
2023/10/11 06:05:25;;;;;;;11.68;6.97;;;;;;;16.88;69.25;100271.06;10343757;28;20179;-56
2023/10/11 06:10:41;;;;;;;7.32;6.20;;;;;;;16.94;70.64;100292.72;10341923;28;20053;-55
2023/10/11 06:15:58;;;;;;;13.02;6.65;;;;;;;16.99;69.78;100289.56;10332520;28;20054;-54
2023/10/11 06:21:05;;;;;;;14.20;7.38;;;;;;;17.03;70.39;100285.53;10338087;28;20132;-56
2023/10/11 06:26:28;;;;;;;15.48;6.88;;;;;;;17.09;70.76;100289.41;10335800;28;20057;-58
2023/10/11 06:31:33;;;;;;;11.13;6.90;;;;;;;17.11;68.01;100285.56;10336840;28;20049;-55
2023/10/11 06:36:35;;;;;;;12.23;5.82;;;;;;;17.06;68.61;100279.00;10337954;28;20674;-57
2023/10/11 06:41:37;;;;;;;11.65;5.55;;;;;;;17.06;67.67;100262.84;10340487;28;20245;-55
2023/10/11 06:46:39;;;;;;;10.05;6.53;;;;;;;17.19;67.58;100284.72;10341876;28;20481;-56
2023/10/11 06:51:41;;;;;;;12.80;6.22;;;;;;;17.22;67.16;100300.53;10331907;28;20045;-54
2023/10/11 06:56:43;;;;;;;9.32;6.63;;;;;;;17.20;67.23;100299.84;10334339;28;20508;-58
2023/10/11 07:01:45;;;;;;;11.30;6.90;;;;;;;17.39;67.03;100312.16;10334183;28;20053;-54
2023/10/11 07:06:48;;;;;;;12.32;6.35;;;;;;;17.38;66.80;100293.50;10338574;28;20117;-55
2023/10/11 07:11:50;;;;;;;14.15;7.30;;;;;;;17.36;66.06;100274.81;10336677;28;20075;-55
2023/10/11 07:16:53;;;;;;;14.07;6.70;;;;;;;17.40;66.17;100275.31;10337168;28;20061;-54
2023/10/11 07:22:02;;;;;;;13.20;7.50;;;;;;;17.52;66.43;100290.16;10336909;28;20057;-57
2023/10/11 07:27:26;;;;;;;11.52;7.50;;;;;;;17.64;66.04;100282.56;10335800;28;20080;-55
2023/10/11 07:32:29;;;;;;;14.50;7.20;;;;;;;17.82;65.99;100290.47;10341810;28;20049;-54
2023/10/11 07:37:31;;;;;;;12.57;7.28;;;;;;;17.90;65.71;100285.09;10342236;28;20059;-55
2023/10/11 07:42:37;;;;;;;11.18;6.22;;;;;;;17.96;64.81;100270.94;10327701;28;20144;-54
2023/10/11 07:47:45;;;;;;;14.70;6.40;;;;;;;18.17;64.36;100299.19;10341906;28;20052;-56
2023/10/11 07:52:48;;;;;;;12.15;6.47;;;;;;;18.20;63.40;100301.53;10339895;28;20179;-55
2023/10/11 07:57:49;;;;;;;10.65;6.10;;;;;;;18.30;63.81;100299.50;10337065;28;20068;-56
2023/10/11 08:03:03;;;;;;;14.10;6.78;;;;;;;18.31;62.97;100293.06;10338075;28;20129;-54
2023/10/11 08:08:05;;;;;;;12.70;7.25;;;;;;;18.42;62.24;100307.19;10336662;28;20046;-56
2023/10/11 08:13:14;;;;;;;9.68;6.30;;;;;;;18.47;62.41;100304.81;10332800;28;20049;-55
2023/10/11 08:18:16;;;;;;;13.70;6.28;;;;;;;18.60;62.13;100310.50;10333686;28;20762;-56
2023/10/11 08:23:30;;;;;;;9.32;5.82;;;;;;;18.73;61.38;100283.84;10337260;28;20061;-55
2023/10/11 08:28:34;;;;;;;10.43;5.68;;;;;;;18.92;61.08;100294.38;10337333;28;20164;-56
2023/10/11 08:33:37;;;;;;;10.15;6.30;;;;;;;19.01;60.88;100301.41;10333467;28;20582;-57
2023/10/11 08:38:39;;;;;;;11.57;6.13;;;;;;;19.17;60.59;100303.16;10341624;28;20542;-56
2023/10/11 08:43:43;;;;;;;13.10;5.53;;;;;;;19.39;59.71;100278.03;10332513;28;20059;-56
2023/10/11 08:48:49;;;;;;;12.25;5.80;;;;;;;19.50;59.83;100286.72;10335269;28;20124;-57
2023/10/11 08:53:54;;;;;;;9.60;5.38;;;;;;;19.57;59.87;100276.88;10336133;28;20544;-54
2023/10/11 08:58:56;;;;;;;12.77;6.15;;;;;;;19.76;58.61;100287.16;10346972;28;20056;-55
2023/10/11 09:04:06;;;;;;;12.80;5.75;;;;;;;19.97;58.99;100285.66;10349584;28;20084;-55
2023/10/11 09:09:14;;;;;;;11.30;6.35;;;;;;;20.21;58.22;100275.63;10346011;28;20080;-55
2023/10/11 09:14:26;;;;;;;13.88;6.88;;;;;;;20.33;57.76;100284.94;10345444;28;20065;-57
2023/10/11 09:19:28;;;;;;;9.18;5.45;;;;;;;20.56;56.77;100284.00;10342654;28;20042;-56
2023/10/11 09:24:37;;;;;;;11.10;5.28;;;;;;;20.72;57.17;100283.81;10341676;28;20111;-56
2023/10/11 09:29:49;;;;;;;9.98;5.60;;;;;;;20.94;57.99;100281.16;10346509;28;20045;-54
2023/10/11 09:34:51;;;;;;;8.35;5.35;;;;;;;21.14;56.74;100290.31;10342773;28;20045;-56
2023/10/11 09:39:53;;;;;;;11.70;5.00;;;;;;;21.44;56.10;100283.94;10345875;28;20117;-56
2023/10/11 09:44:58;;;;;;;11.50;6.03;;;;;;;21.78;54.73;100283.22;10349779;28;20160;-54
2023/10/11 09:50:00;;;;;;;12.00;5.10;;;;;;;22.17;55.49;100278.28;10349925;28;20471;-54
2023/10/11 09:55:17;;;;;;;13.40;5.07;;;;;;;22.55;53.30;100273.31;10341563;28;20053;-54
2023/10/11 10:00:34;;;;;;;10.20;4.85;;;;;;;22.55;52.58;100278.75;10332495;28;20593;-56
2023/10/11 10:06:04;;;;;;;9.70;5.20;;;;;;;22.59;52.34;100261.03;10340144;28;20532;-52
2023/10/11 10:11:12;;;;;;;8.93;5.28;;;;;;;22.81;51.12;100266.31;10336253;28;20139;-52
2023/10/11 10:16:14;;;;;;;8.63;4.72;;;;;;;23.07;50.95;100262.00;10323566;28;20064;-53
2023/10/11 10:21:17;;;;;;;5.85;4.10;;;;;;;23.22;51.25;100257.25;10345680;28;20045;-52
2023/10/11 10:26:21;;;;;;;8.95;4.30;;;;;;;23.35;50.42;100263.75;10346265;28;20135;-52
2023/10/11 10:31:24;;;;;;;9.88;5.25;;;;;;;23.38;49.16;100255.19;10342748;28;20046;-52
2023/10/11 10:36:31;;;;;;;9.70;5.25;;;;;;;23.62;50.59;100251.03;10344167;28;20319;-52
2023/10/11 10:41:36;;;;;;;7.63;4.38;;;;;;;23.81;48.27;100236.56;10337288;28;20140;-54
2023/10/11 10:46:53;;;;;;;9.75;4.75;;;;;;;24.30;49.42;100231.66;10347776;28;20064;-52
2023/10/11 10:51:57;;;;;;;11.75;5.05;;;;;;;24.79;48.43;100253.06;10344896;28;20139;-54
2023/10/11 10:56:58;;;;;;;;;;;;;;;25.17;47.39;100239.41;10339282;28;20060;-54
2023/10/11 11:02:10;;;;;;;10.32;4.68;;;;;;;25.44;44.47;100230.25;10338673;28;20340;-55
2023/10/11 11:07:22;;;;;;;9.25;4.30;;;;;;;25.66;44.18;100226.06;10335975;28;20065;-56
2023/10/11 11:12:28;;;;;;;10.13;5.00;;;;;;;26.04;43.99;100219.63;10345708;28;20052;-55
2023/10/11 11:17:47;;;;;;;8.35;4.47;;;;;;;26.31;45.17;100202.13;10338885;28;20490;-54
2023/10/11 11:22:52;;;;;;;9.30;4.28;;;;;;;26.60;42.87;100211.41;10338693;28;20068;-54
2023/10/11 11:28:15;;;;;;;12.10;4.53;;;;;;;27.08;42.96;100207.81;10339468;28;20045;-53
2023/10/11 11:33:35;;;;;;;10.60;4.40;;;;;;;27.26;41.44;100203.31;10336143;28;20708;-54
2023/10/11 11:38:37;;;;;;;10.50;4.10;;;;;;;27.62;40.29;100193.28;10330758;28;20154;-54
2023/10/11 11:43:39;;;;;;;7.65;4.57;;;;;;;27.92;40.00;100186.84;10339974;28;20438;-53
2023/10/11 11:48:45;;;;;;;12.23;4.07;;;;;;;28.43;38.70;100187.94;10339156;28;20388;-55
2023/10/11 11:53:47;;;;;;;11.02;4.15;;;;;;;28.56;39.93;100179.44;10332412;28;20087;-55
2023/10/11 11:58:50;;;;;;;9.70;4.07;;;;;;;29.05;38.00;100164.44;10333318;28;20065;-54
2023/10/11 12:03:54;;;;;;;14.23;4.50;;;;;;;29.47;36.45;100160.47;10335081;28;20055;-54
2023/10/11 12:08:58;;;;;;;11.95;5.80;;;;;;;29.65;36.24;100151.13;10336600;28;20049;-55
2023/10/11 12:14:03;;;;;;;12.20;5.07;;;;;;;30.48;35.75;100143.69;10334128;28;20208;-55
2023/10/11 12:19:11;;;;;;;7.72;3.55;;;;;;;31.07;35.54;100135.75;10334515;28;20469;-53
2023/10/11 12:24:15;;;;;;;9.52;4.45;;;;;;;31.68;33.40;100127.13;10334342;28;20069;-56
2023/10/11 12:29:32;;;;;;;12.90;3.75;;;;;;;31.92;33.10;100116.50;10341180;28;20429;-55
2023/10/11 12:34:34;;;;;;;7.43;3.47;;;;;;;32.32;31.05;100111.41;10341772;28;20409;-59
2023/10/11 12:39:35;;;;;;;;;;;;;;;32.29;31.01;100109.19;10335169;28;20049;-54
2023/10/11 12:44:40;;;;;;;7.57;3.37;;;;;;;32.58;32.72;100101.28;10347752;28;20600;-54
2023/10/11 12:49:42;;;;;;;13.00;5.13;;;;;;;32.75;30.26;100104.59;10339320;28;20325;-53
2023/10/11 12:54:44;;;;;;;9.57;3.80;;;;;;;33.55;30.49;100094.03;10346927;28;20349;-54
2023/10/11 12:59:46;;;;;;;;;;;;;;;33.76;29.12;100092.06;10345631;28;20190;-53
2023/10/11 13:04:49;;;;;;;7.80;3.75;;;;;;;34.35;26.69;100068.31;10346602;28;20375;-53
2023/10/11 13:09:50;;;;;;;8.23;3.63;;;;;;;34.84;25.62;100070.13;10341233;28;20079;-54
2023/10/11 13:14:53;;;;;;;;;;;;;;;35.53;25.44;100056.16;10343906;28;20349;-55
2023/10/11 13:19:54;;;;;;;6.22;3.47;;;;;;;37.14;23.64;100055.41;10343323;28;20537;-54
2023/10/11 13:24:56;;;;;;;10.15;3.65;;;;;;;38.51;20.87;100050.00;10336342;28;21056;-55
2023/10/11 13:30:02;;;;;;;7.22;3.30;;;;;;;38.48;20.94;100039.53;10339689;28;20143;-57
2023/10/11 13:35:05;;;;;;;10.18;3.33;;;;;;;37.98;21.37;100042.34;10345246;28;20123;-54
2023/10/11 13:40:08;;;;;;;7.70;3.47;;;;;;;37.95;21.31;100018.78;10339442;28;20050;-53
2023/10/11 13:45:14;;;;;;;8.65;3.92;;;;;;;38.33;20.59;100021.28;10338778;28;20053;-56
2023/10/11 13:50:22;;;;;;;7.95;3.30;;;;;;;39.24;20.54;100005.25;10343923;28;20115;-55
2023/10/11 13:55:24;;;;;;;8.23;3.05;;;;;;;39.19;19.46;100013.75;10336454;28;20056;-54
2023/10/11 14:05:50;;;;;;;9.98;3.33;;;;;;;39.80;18.75;100003.94;10340162;28;20291;-55
2023/10/11 14:10:52;;;;;;;5.07;3.50;;;;;;;39.56;18.53;99986.56;10336008;28;20128;-56
2023/10/11 14:16:04;;;;;;;8.82;3.40;;;;;;;39.49;19.21;99990.94;10329838;28;20042;-54
2023/10/11 14:21:12;;;;;;;11.73;4.15;;;;;;;39.06;19.33;99987.66;10330292;28;20072;-53
2023/10/11 14:26:15;;;;;;;8.20;3.00;;;;;;;39.08;19.65;99979.81;10340362;28;20054;-54
2023/10/11 14:31:22;;;;;;;7.70;3.05;;;;;;;38.14;20.28;99974.19;10341056;28;20057;-54
2023/10/11 14:36:23;;;;;;;6.18;2.97;;;;;;;35.68;21.68;99971.28;10337858;28;20560;-55
2023/10/11 14:41:25;;;;;;;6.13;2.92;;;;;;;33.87;25.56;99971.38;10337597;28;20362;-55
2023/10/11 14:46:26;;;;;;;9.30;3.17;;;;;;;32.46;26.92;99979.50;10332381;28;20050;-54
2023/10/11 14:51:28;;;;;;;;;;;;;;;31.23;28.05;99967.09;10330294;28;20231;-53
2023/10/11 14:56:31;;;;;;;6.65;3.28;;;;;;;30.22;29.85;99957.81;10332611;28;19932;-54
2023/10/11 15:01:33;;;;;;;7.70;3.67;;;;;;;29.70;31.06;99957.31;10334750;28;20356;-54
2023/10/11 15:06:39;;;;;;;11.13;5.55;;;;;;;29.29;31.94;99956.00;10333292;28;20054;-54
2023/10/11 15:11:41;;;;;;;6.68;4.20;;;;;;;28.81;32.64;99952.84;10333172;28;20041;-53
2023/10/11 15:16:46;;;;;;;8.07;3.37;;;;;;;28.35;33.07;99942.84;10336197;28;20084;-54
2023/10/11 15:21:48;;;;;;;8.00;3.55;;;;;;;28.14;33.82;99958.06;10336543;28;20379;-53
2023/10/11 15:26:53;;;;;;;8.50;4.13;;;;;;;27.89;34.33;99943.91;10336335;28;20191;-54
2023/10/11 15:31:54;;;;;;;8.68;3.63;;;;;;;27.73;34.66;99956.47;10329887;28;20072;-53
2023/10/11 15:36:56;;;;;;;7.97;3.47;;;;;;;27.35;35.70;99953.28;10337416;28;20203;-53
2023/10/11 15:41:58;;;;;;;8.20;3.43;;;;;;;27.03;35.39;99953.66;10330745;28;20061;-53
2023/10/11 15:47:03;;;;;;;7.15;3.40;;;;;;;26.83;36.12;99951.31;10331565;28;20133;-53
2023/10/11 15:52:05;;;;;;;4.00;2.97;;;;;;;26.60;36.19;99960.28;10328478;28;20172;-55
2023/10/11 15:57:07;;;;;;;12.55;3.72;;;;;;;26.26;36.40;99952.66;10340340;28;20053;-54
2023/10/11 16:02:11;;;;;;;7.80;3.65;;;;;;;26.20;36.86;99956.34;10328533;28;20532;-53
2023/10/11 16:07:13;;;;;;;8.77;4.10;;;;;;;26.00;36.82;99964.84;10336490;28;20223;-54
2023/10/11 16:12:15;;;;;;;8.10;3.53;;;;;;;25.89;36.60;99965.59;10329689;28;20596;-54
2023/10/11 16:17:16;;;;;;;9.10;3.83;;;;;;;25.65;37.05;99960.03;10330735;28;20061;-55
2023/10/11 16:22:20;;;;;;;9.15;3.25;;;;;;;25.56;37.35;99961.41;10332194;28;20179;-54
2023/10/11 16:27:22;;;;;;;6.43;3.67;;;;;;;25.32;37.44;99939.50;10332461;28;20086;-55
2023/10/11 16:32:23;;;;;;;7.57;3.72;;;;;;;25.26;37.88;99939.56;10334522;28;20069;-55
2023/10/11 16:37:25;;;;;;;7.03;3.78;;;;;;;25.14;37.85;99942.19;10329787;28;20057;-56
2023/10/11 16:42:27;;;;;;;7.20;3.78;;;;;;;25.04;38.11;99940.84;10344479;28;20129;-55
2023/10/11 16:47:30;;;;;;;5.63;3.85;;;;;;;24.94;38.27;99954.16;10336819;28;20057;-55
2023/10/11 16:52:32;;;;;;;7.38;3.45;;;;;;;24.84;38.62;99970.16;10330531;28;20162;-55
2023/10/11 16:57:33;;;;;;;8.70;3.70;;;;;;;24.72;38.93;99966.50;10332709;28;20054;-55
2023/10/11 17:02:36;;;;;;;9.45;4.05;;;;;;;24.64;39.73;99965.72;10338473;28;20048;-54
2023/10/11 17:07:38;;;;;;;7.70;4.13;;;;;;;24.55;39.82;99967.03;10334370;28;20057;-57
2023/10/11 17:12:40;;;;;;;10.88;4.10;;;;;;;24.42;40.84;99962.53;10330765;28;20084;-55
2023/10/11 17:17:42;;;;;;;11.23;4.28;;;;;;;24.31;41.14;99969.53;10339178;28;20060;-56
2023/10/11 17:22:47;;;;;;;9.77;4.13;;;;;;;24.10;41.45;99959.84;10344448;28;20049;-56
2023/10/11 17:27:53;;;;;;;10.43;4.00;;;;;;;24.15;42.02;99968.16;10348259;28;20700;-54
2023/10/11 17:32:56;;;;;;;9.38;4.20;;;;;;;24.12;42.27;99970.50;10348240;28;20418;-56
2023/10/11 17:37:58;;;;;;;10.57;4.63;;;;;;;23.97;42.75;99959.94;10345667;28;20042;-56
2023/10/11 17:43:00;;;;;;;9.80;4.03;;;;;;;23.91;43.13;99967.06;10344649;28;20493;-57
2023/10/11 17:48:03;;;;;;;6.33;4.30;;;;;;;23.85;43.73;99976.09;10348400;28;20461;-56
2023/10/11 17:53:04;;;;;;;9.40;3.67;;;;;;;23.80;44.18;99970.47;10340767;28;20045;-56
2023/10/11 17:58:06;;;;;;;8.43;4.05;;;;;;;23.70;43.95;99975.53;10348737;28;21233;-56
2023/10/11 18:03:10;;;;;;;7.47;4.05;;;;;;;23.65;44.76;99985.16;10349269;28;20058;-56
2023/10/11 18:08:12;;;;;;;10.88;4.07;;;;;;;23.63;44.94;99984.56;10347491;28;20544;-55
2023/10/11 18:13:14;;;;;;;11.27;5.07;;;;;;;23.57;45.52;99981.84;10344961;28;20061;-58
2023/10/11 18:18:18;;;;;;;12.13;4.03;;;;;;;23.42;46.06;99987.56;10345518;28;20183;-56
2023/10/11 18:23:21;;;;;;;15.15;5.28;;;;;;;23.31;46.70;99975.47;10351448;28;20060;-56
2023/10/11 18:28:23;;;;;;;12.05;4.90;;;;;;;23.26;46.94;99972.59;10342190;28;20060;-56
2023/10/11 18:33:25;;;;;;;7.40;3.97;;;;;;;23.18;47.11;99970.94;10340953;28;20077;-55
2023/10/11 18:38:26;;;;;;;10.30;4.63;;;;;;;23.02;47.76;99960.50;10338844;28;20811;-55
2023/10/11 18:43:28;;;;;;;11.65;3.75;;;;;;;22.99;47.54;99967.19;10344898;28;20607;-55
2023/10/11 18:48:30;;;;;;;9.10;4.25;;;;;;;22.97;48.03;99968.44;10344855;28;20049;-56
2023/10/11 18:53:32;;;;;;;8.50;3.90;;;;;;;22.91;48.17;99965.53;10340588;28;20084;-49
2023/10/11 18:58:33;;;;;;;10.30;4.27;;;;;;;22.89;48.75;99964.06;10344794;28;20622;-48
2023/10/11 19:03:35;;;;;;;9.23;4.40;;;;;;;22.82;49.07;99969.53;10339460;28;20049;-49
2023/10/11 19:08:37;;;;;;;14.80;5.28;;;;;;;22.78;48.90;99963.66;10346983;28;20417;-48
2023/10/11 19:13:43;;;;;;;9.93;4.03;;;;;;;22.72;48.97;99956.38;10344456;28;20110;-49
2023/10/11 19:18:46;;;;;;;9.20;3.95;;;;;;;22.67;48.87;99958.03;10341378;28;20057;-53
2023/10/11 19:23:48;;;;;;;10.50;4.15;;;;;;;22.61;48.98;99946.19;10339686;28;20053;-49
2023/10/11 19:28:52;;;;;;;10.07;4.35;;;;;;;22.49;49.48;99940.53;10343279;28;20588;-47
2023/10/11 19:33:53;;;;;;;12.88;4.38;;;;;;;22.51;49.75;99946.59;10343606;28;21062;-49
2023/10/11 19:38:55;;;;;;;8.30;3.47;;;;;;;22.45;49.69;99944.72;10345844;28;20049;-48
2023/10/11 19:43:57;;;;;;;10.48;4.15;;;;;;;22.40;49.76;99937.22;10339772;28;20076;-49
2023/10/11 19:48:59;;;;;;;8.65;3.78;;;;;;;22.32;49.89;99937.41;10344490;28;20053;-49
2023/10/11 19:54:02;;;;;;;9.45;4.32;;;;;;;22.32;49.83;99931.16;10340988;28;20576;-48
2023/10/11 19:59:03;;;;;;;9.95;4.30;;;;;;;22.26;50.22;99930.06;10338798;28;20057;-48
2023/10/11 20:04:05;;;;;;;13.90;5.57;;;;;;;22.14;50.53;99935.28;10344829;28;20464;-49
2023/10/11 20:09:07;;;;;;;7.55;3.78;;;;;;;22.04;50.46;99940.28;10348315;28;20049;-50
2023/10/11 20:14:09;;;;;;;8.23;4.25;;;;;;;22.00;50.66;99939.03;10343691;28;20534;-49
2023/10/11 20:19:16;;;;;;;7.47;3.70;;;;;;;21.92;51.33;99931.06;10343782;28;20136;-48
2023/10/11 20:24:19;;;;;;;9.98;4.85;;;;;;;21.82;51.10;99932.31;10342274;28;20064;-48
2023/10/11 20:29:22;;;;;;;7.40;3.95;;;;;;;21.80;51.22;99933.56;10342204;28;20057;-49
2023/10/11 20:34:24;;;;;;;13.93;4.03;;;;;;;21.83;51.05;99939.41;10341817;28;20478;-48
2023/10/11 20:39:29;;;;;;;8.48;3.95;;;;;;;21.85;50.91;99947.34;10345993;28;20049;-48
2023/10/11 20:44:32;;;;;;;7.90;3.88;;;;;;;21.83;51.02;99931.28;10350990;28;21481;-49
2023/10/11 20:49:33;;;;;;;11.75;3.83;;;;;;;21.82;50.59;99929.59;10339740;28;20465;-48
2023/10/11 20:54:35;;;;;;;10.57;4.10;;;;;;;21.79;50.69;99932.72;10349586;28;20407;-48
2023/10/11 20:59:38;;;;;;;8.93;4.22;;;;;;;21.69;50.76;99926.88;10343964;28;20065;-48
2023/10/11 21:04:40;;;;;;;;;;;;;;;21.70;50.83;99926.66;10352662;28;20099;-48
2023/10/11 21:09:43;;;;;;;8.57;3.97;;;;;;;21.66;50.70;99913.72;10350423;28;19928;-48
2023/10/11 21:14:44;;;;;;;9.60;3.35;;;;;;;21.65;50.94;99909.38;10344268;28;20187;-47
2023/10/11 21:19:47;;;;;;;9.75;3.40;;;;;;;21.62;50.73;99915.16;10365973;28;20386;-48
2023/10/11 21:24:48;;;;;;;12.45;3.83;;;;;;;21.57;51.23;99912.25;10341840;28;20064;-48
2023/10/11 21:29:50;;;;;;;10.38;3.95;;;;;;;21.43;51.53;99895.94;10347933;28;20287;-48
2023/10/11 21:34:51;;;;;;;7.65;4.68;;;;;;;21.49;51.84;99911.38;10349643;28;20061;-48
2023/10/11 21:39:54;;;;;;;10.98;4.53;;;;;;;21.39;52.04;99910.09;10346738;28;20054;-48
2023/10/11 21:44:56;;;;;;;8.05;4.63;;;;;;;21.33;52.57;99900.88;10352712;28;20057;-48
2023/10/11 21:49:57;;;;;;;12.65;4.35;;;;;;;21.27;52.98;99890.88;10346839;28;20486;-56
2023/10/11 21:54:59;;;;;;;8.57;4.03;;;;;;;21.20;53.37;99896.28;10343278;28;20430;-56
2023/10/11 22:00:00;;;;;;;8.60;3.58;;;;;;;21.16;53.69;99900.41;10346725;28;20057;-56
2023/10/11 22:05:05;;;;;;;8.20;4.00;;;;;;;21.09;54.17;99895.00;10347878;28;20049;-56
2023/10/11 22:10:10;;;;;;;7.70;4.20;;;;;;;21.05;54.33;99877.47;10346181;28;20057;-56
2023/10/11 22:15:14;;;;;;;11.70;3.83;;;;;;;21.04;54.79;99875.81;10343299;28;20088;-55
2023/10/11 22:20:16;;;;;;;6.05;4.03;;;;;;;20.99;55.01;99862.06;10345000;28;20057;-55
2023/10/11 22:25:21;;;;;;;10.63;4.00;;;;;;;20.91;55.15;99870.31;10353340;28;20101;-55
2023/10/11 22:30:23;;;;;;;5.68;3.13;;;;;;;20.92;55.64;99866.59;10345756;28;20506;-55
2023/10/11 22:35:25;;;;;;;11.98;4.40;;;;;;;20.84;55.74;99865.72;10340228;28;20152;-56
2023/10/11 22:40:28;;;;;;;7.47;3.58;;;;;;;20.86;55.87;99872.81;10339300;28;20050;-55
2023/10/11 22:45:30;;;;;;;15.52;4.88;;;;;;;20.84;56.01;99870.31;10337275;28;20081;-54
2023/10/11 22:50:33;;;;;;;7.83;3.60;;;;;;;20.80;55.50;99879.84;10346121;28;20061;-55
2023/10/11 22:55:35;;;;;;;9.57;4.43;;;;;;;20.83;55.93;99880.25;10342225;28;20667;-55
2023/10/11 23:00:36;;;;;;;12.07;4.28;;;;;;;20.83;55.94;99876.75;10342157;28;20774;-56
2023/10/11 23:05:37;;;;;;;8.75;3.67;;;;;;;20.79;55.85;99884.44;10341963;28;20068;-57
2023/10/11 23:10:44;;;;;;;9.63;4.60;;;;;;;20.76;56.30;99892.09;10337253;28;20058;-54
2023/10/11 23:15:54;;;;;;;8.43;3.60;;;;;;;20.70;56.10;99896.41;10336365;28;20049;-56
2023/10/11 23:20:56;;;;;;;8.10;3.97;;;;;;;20.64;56.27;99898.03;10340361;28;20046;-55
2023/10/11 23:26:04;;;;;;;6.90;3.78;;;;;;;20.61;56.58;99893.03;10342918;28;20661;-56
2023/10/11 23:31:08;;;;;;;9.35;3.65;;;;;;;20.66;56.25;99905.97;10334210;28;20089;-55
2023/10/11 23:36:10;;;;;;;8.15;4.07;;;;;;;20.60;56.31;99885.13;10338278;28;20049;-55
2023/10/11 23:41:17;;;;;;;11.65;4.63;;;;;;;20.63;56.61;99906.34;10342335;28;20053;-56
2023/10/11 23:46:25;;;;;;;11.85;5.82;;;;;;;20.61;56.55;99911.94;10337885;28;20705;-57
2023/10/11 23:51:28;;;;;;;6.68;3.88;;;;;;;20.58;56.89;99903.38;10340573;28;20057;-56